createdAt,value
2023-04-11T00:00:51.818Z,5.10
2023-04-11T00:03:19.033Z,6.20
2023-04-11T00:05:46.542Z,6.27
2023-04-11T00:08:13.337Z,5.63
2023-04-11T00:10:40.038Z,6.53
2023-04-11T00:13:06.728Z,6.37
2023-04-11T00:15:33.478Z,5.70
2023-04-11T00:18:01.560Z,6.67
2023-04-11T00:20:28.368Z,6.63
2023-04-11T00:22:55.022Z,6.23
2023-04-11T00:25:21.739Z,6.40
2023-04-11T00:27:48.482Z,6.90
2023-04-11T00:30:15.213Z,7.23
2023-04-11T00:32:41.978Z,6.30
2023-04-11T00:35:10.263Z,7.10
2023-04-11T00:37:36.927Z,5.10
2023-04-11T00:40:03.952Z,5.30
2023-04-11T00:42:30.665Z,6.43
2023-04-11T00:44:57.339Z,6.87
2023-04-11T00:47:24.207Z,6.23
2023-04-11T00:49:51.007Z,6.50
2023-04-11T00:52:19.493Z,6.90
2023-04-11T00:54:46.771Z,6.50
2023-04-11T00:57:14.240Z,5.83
2023-04-11T00:59:41.617Z,6.80
2023-04-11T01:02:08.421Z,6.53
2023-04-11T01:04:35.176Z,6.57
2023-04-11T01:07:05.009Z,7.57
2023-04-11T01:09:35.282Z,6.30
2023-04-11T01:12:03.850Z,6.87
2023-04-11T01:14:30.742Z,6.70
2023-04-11T01:16:58.083Z,6.43
2023-04-11T01:19:26.199Z,7.50
2023-04-11T01:21:54.354Z,7.03
2023-04-11T01:24:22.624Z,6.57
2023-04-11T01:26:49.568Z,6.40
2023-04-11T01:29:16.248Z,6.10
2023-04-11T01:31:43.945Z,6.63
2023-04-11T01:34:11.378Z,5.97
2023-04-11T01:36:38.250Z,6.00
2023-04-11T01:39:06.041Z,6.20
2023-04-11T01:41:34.588Z,7.47
2023-04-11T01:44:01.772Z,8.10
2023-04-11T01:46:28.478Z,6.87
2023-04-11T01:48:56.306Z,6.70
2023-04-11T01:51:23.232Z,6.83
2023-04-11T01:53:49.921Z,7.00
2023-04-11T01:56:16.715Z,6.37
2023-04-11T01:58:44.756Z,6.10
2023-04-11T02:01:11.512Z,7.17
2023-04-11T02:03:38.321Z,7.53
2023-04-11T02:06:05.964Z,7.10
2023-04-11T02:08:32.726Z,6.93
2023-04-11T02:10:59.560Z,7.30
2023-04-11T02:13:26.297Z,5.83
2023-04-11T02:15:54.373Z,7.80
2023-04-11T02:18:21.375Z,6.27
2023-04-11T02:20:48.100Z,6.10
2023-04-11T02:23:14.761Z,6.60
2023-04-11T02:25:41.471Z,8.10
2023-04-11T02:28:08.491Z,5.77
2023-04-11T02:30:35.266Z,7.20
2023-04-11T02:33:03.752Z,7.73
2023-04-11T02:35:30.486Z,7.37
2023-04-11T02:37:57.174Z,6.93
2023-04-11T02:40:24.157Z,7.00
2023-04-11T02:42:50.851Z,6.77
2023-04-11T02:45:17.578Z,7.27
2023-04-11T02:47:44.247Z,7.37
2023-04-11T02:50:12.568Z,7.10
2023-04-11T02:52:39.316Z,6.73
2023-04-11T02:55:06.448Z,6.10
2023-04-11T02:57:33.113Z,6.90
2023-04-11T02:59:59.772Z,6.10
2023-04-11T03:02:26.644Z,5.70
2023-04-11T03:04:53.444Z,7.30
2023-04-11T03:07:21.501Z,4.90
2023-04-11T03:09:48.243Z,7.10
2023-04-11T03:12:14.960Z,6.50
2023-04-11T03:14:41.719Z,5.40
2023-04-11T03:17:08.412Z,6.10
2023-04-11T03:19:35.097Z,5.90
2023-04-11T03:22:01.836Z,6.17
2023-04-11T03:24:29.919Z,6.43
2023-04-11T03:26:56.574Z,6.90
2023-04-11T03:29:23.265Z,6.37
2023-04-11T03:31:50.109Z,5.50
2023-04-11T03:34:16.823Z,6.50
2023-04-11T03:36:43.604Z,6.13
2023-04-11T03:39:10.293Z,6.60
2023-04-11T03:41:38.480Z,5.33
2023-04-11T03:44:05.222Z,5.50
2023-04-11T03:46:31.960Z,5.80
2023-04-11T03:48:58.768Z,6.00
2023-04-11T03:51:25.911Z,6.03
2023-04-11T03:53:52.704Z,6.23
2023-04-11T03:56:19.519Z,6.30
2023-04-11T03:58:47.509Z,6.50
2023-04-11T04:01:14.163Z,6.20
2023-04-11T04:03:41.335Z,6.07
2023-04-11T04:06:08.849Z,4.83
2023-04-11T04:08:35.580Z,5.90
2023-04-11T04:11:02.235Z,6.67
2023-04-11T04:13:28.987Z,6.67
2023-04-11T04:15:57.050Z,5.77
2023-04-11T04:18:23.801Z,5.73
2023-04-11T04:20:50.519Z,6.30
2023-04-11T04:23:17.200Z,6.07
2023-04-11T04:25:44.337Z,5.70
2023-04-11T04:28:11.014Z,6.27
2023-04-11T04:30:37.724Z,5.67
2023-04-11T04:33:05.842Z,5.93
2023-04-11T04:35:32.599Z,4.90
2023-04-11T04:37:59.289Z,5.77
2023-04-11T04:40:25.964Z,5.57
2023-04-11T04:42:52.972Z,5.57
2023-04-11T04:45:19.792Z,4.30
2023-04-11T04:47:46.483Z,5.50
2023-04-11T04:50:14.541Z,4.90
2023-04-11T04:52:41.517Z,4.43
2023-04-11T04:55:08.997Z,4.17
2023-04-11T04:57:35.647Z,3.70
2023-04-11T05:00:02.346Z,4.03
2023-04-11T05:02:29.171Z,5.43
2023-04-11T05:04:55.956Z,4.93
2023-04-11T05:07:24.083Z,3.93
2023-04-11T05:09:50.736Z,4.33
2023-04-11T05:12:17.660Z,3.83
2023-04-11T05:14:44.381Z,4.53
2023-04-11T05:17:11.037Z,3.47
2023-04-11T05:19:37.751Z,3.10
2023-04-11T05:22:04.435Z,3.80
2023-04-11T05:24:32.513Z,3.00
2023-04-11T05:26:59.301Z,2.90
2023-04-11T05:29:25.999Z,3.30
2023-04-11T05:31:52.709Z,3.10
2023-04-11T05:34:19.389Z,3.27
2023-04-11T05:36:46.098Z,2.67
2023-04-11T05:39:13.024Z,3.10
2023-04-11T05:41:41.087Z,3.00
2023-04-11T05:44:07.758Z,2.03
2023-04-11T05:46:34.702Z,2.17
2023-04-11T05:49:01.402Z,1.80
2023-04-11T05:51:28.181Z,1.50
2023-04-11T05:53:55.050Z,2.13
2023-04-11T05:56:21.836Z,1.70
2023-04-11T05:58:49.896Z,1.60
2023-04-11T06:01:16.631Z,1.83
2023-04-11T06:03:43.429Z,1.70
2023-04-11T06:06:10.336Z,1.37
2023-04-11T06:08:37.095Z,1.70
2023-04-11T06:11:04.025Z,1.73
2023-04-11T06:13:30.768Z,2.10
2023-04-11T06:15:59.237Z,1.50
2023-04-11T06:18:26.025Z,1.00
2023-04-11T06:20:52.683Z,1.33
2023-04-11T06:23:19.338Z,1.10
2023-04-11T06:25:45.994Z,1.70
2023-04-11T06:28:12.735Z,1.50
2023-04-11T06:30:39.418Z,1.33
2023-04-11T06:33:07.696Z,1.50
2023-04-11T06:35:34.501Z,2.20
2023-04-11T06:38:01.218Z,1.90
2023-04-11T06:40:27.952Z,0.93
2023-04-11T06:42:54.578Z,1.80
2023-04-11T06:45:21.239Z,1.50
2023-04-11T06:47:48.105Z,2.30
2023-04-11T06:50:16.270Z,2.60
2023-04-11T06:52:42.949Z,1.97
2023-04-11T06:55:09.878Z,1.47
2023-04-11T06:57:36.557Z,1.97
2023-04-11T07:00:03.565Z,1.63
2023-04-11T07:02:31.663Z,1.63
2023-04-11T07:04:58.432Z,1.00
2023-04-11T07:07:30.038Z,1.70
2023-04-11T07:09:57.028Z,1.10
2023-04-11T07:12:23.865Z,1.70
2023-04-11T07:14:50.548Z,1.40
2023-04-11T07:17:17.227Z,1.43
2023-04-11T07:19:43.912Z,1.20
2023-04-11T07:22:10.582Z,1.40
2023-04-11T07:24:38.591Z,1.23
2023-04-11T07:27:05.255Z,1.30
2023-04-11T07:29:31.937Z,1.50
2023-04-11T07:31:58.708Z,1.40
2023-04-11T07:34:25.486Z,1.30
2023-04-11T07:36:52.149Z,1.43
2023-04-11T07:39:18.765Z,1.80
2023-04-11T07:41:46.796Z,1.87
2023-04-11T07:44:13.430Z,1.80
2023-04-11T07:46:40.140Z,2.10
2023-04-11T07:49:06.793Z,2.07
2023-04-11T07:51:33.471Z,2.37
2023-04-11T07:54:00.144Z,2.50
2023-04-11T07:56:26.868Z,2.50
2023-04-11T07:58:54.959Z,2.83
2023-04-11T08:01:22.878Z,3.00
2023-04-11T08:03:49.886Z,2.27
2023-04-11T08:06:16.685Z,2.47
2023-04-11T08:08:44.374Z,3.17
2023-04-11T08:11:11.123Z,2.80
2023-04-11T08:13:37.778Z,2.20
2023-04-11T08:16:08.437Z,3.00
2023-04-11T08:18:35.428Z,3.13
2023-04-11T08:21:02.459Z,2.87
2023-04-11T08:23:29.646Z,2.57
2023-04-11T08:25:56.385Z,3.50
2023-04-11T08:28:23.102Z,3.23
2023-04-11T08:30:50.060Z,2.83
2023-04-11T08:33:18.390Z,2.80
2023-04-11T08:35:45.039Z,2.70
2023-04-11T08:38:11.716Z,2.67
2023-04-11T08:40:38.393Z,0.80
2023-04-11T08:43:05.763Z,1.57
2023-04-11T08:45:32.443Z,0.70
2023-04-11T08:47:59.166Z,0.50
2023-04-11T08:50:27.204Z,0.70
2023-04-11T08:52:54.221Z,0.87
2023-04-11T08:55:20.944Z,0.70
2023-04-11T08:57:47.600Z,0.80
2023-04-11T09:00:15.411Z,0.60
2023-04-11T09:02:57.883Z,0.83
2023-04-11T09:05:27.454Z,0.53
2023-04-11T09:07:54.118Z,0.70
2023-04-11T09:10:22.129Z,0.80
2023-04-11T09:12:49.064Z,1.10
2023-04-11T09:15:19.940Z,1.40
2023-04-11T09:17:46.768Z,2.00
2023-04-11T09:20:18.141Z,1.93
2023-04-11T09:22:49.538Z,1.40
2023-04-11T09:25:16.682Z,1.50
2023-04-11T09:27:43.380Z,1.40
2023-04-11T09:30:23.710Z,1.40
2023-04-11T09:32:51.489Z,1.90
2023-04-11T09:35:19.612Z,1.47
2023-04-11T09:37:49.338Z,2.10
2023-04-11T09:40:17.720Z,1.90
2023-04-11T09:42:45.335Z,1.53
2023-04-11T09:45:19.667Z,1.70
2023-04-11T09:47:47.316Z,1.10
2023-04-11T09:50:14.249Z,1.37
2023-04-11T09:52:42.661Z,1.47
2023-04-11T09:55:11.981Z,1.33
2023-04-11T09:57:41.042Z,1.20
2023-04-11T10:00:09.436Z,2.27
2023-04-11T10:02:36.263Z,2.13
2023-04-11T10:05:04.343Z,2.33
2023-04-11T10:07:32.265Z,2.63
2023-04-11T10:09:59.036Z,3.47
2023-04-11T10:12:31.869Z,2.67
2023-04-11T10:15:05.422Z,2.27
2023-04-11T10:17:32.133Z,2.63
2023-04-11T10:19:58.915Z,3.37
2023-04-11T10:22:58.947Z,3.30
2023-04-11T10:25:25.633Z,3.17
2023-04-11T10:27:55.238Z,4.67
2023-04-11T10:30:51.751Z,3.60
2023-04-11T10:33:20.752Z,3.47
2023-04-11T10:36:06.177Z,3.50
2023-04-11T10:38:45.873Z,3.43
2023-04-11T10:41:24.412Z,2.80
2023-04-11T10:44:11.883Z,3.07
2023-04-11T10:46:44.790Z,2.87
2023-04-11T10:49:11.544Z,2.73
2023-04-11T10:51:38.210Z,3.10
2023-04-11T10:54:05.298Z,2.23
2023-04-11T10:56:54.366Z,2.80
2023-04-11T10:59:59.042Z,3.30
2023-04-11T11:02:43.502Z,2.90
2023-04-11T11:05:21.281Z,2.67
2023-04-11T11:07:49.465Z,2.50
2023-04-11T11:10:16.399Z,2.40
2023-04-11T11:12:53.378Z,2.37
2023-04-11T11:15:21.638Z,2.33
2023-04-11T11:17:48.669Z,2.70
2023-04-11T11:20:16.688Z,2.63
2023-04-11T11:22:57.135Z,2.90
2023-04-11T11:25:23.943Z,2.93
2023-04-11T11:27:58.625Z,3.10
2023-04-11T11:30:26.803Z,2.80
2023-04-11T11:32:53.557Z,3.53
2023-04-11T11:35:20.664Z,3.17
2023-04-11T11:37:47.360Z,1.53
2023-04-11T11:40:14.111Z,0.73
2023-04-11T11:42:41.191Z,0.90
2023-04-11T11:45:14.830Z,0.83
2023-04-11T11:47:43.896Z,1.07
2023-04-11T11:50:10.750Z,0.93
2023-04-11T11:52:38.800Z,1.43
2023-04-11T11:55:10.453Z,1.07
2023-04-11T11:57:37.989Z,1.20
2023-04-11T12:00:05.917Z,1.67
2023-04-11T12:02:34.773Z,1.90
2023-04-11T12:05:04.964Z,1.50
2023-04-11T12:07:32.192Z,1.80
2023-04-11T12:09:59.992Z,1.00
2023-04-11T12:12:33.905Z,1.33
2023-04-11T12:15:01.753Z,1.13
2023-04-11T12:17:32.242Z,1.97
2023-04-11T12:19:58.983Z,1.70
2023-04-11T12:22:27.078Z,1.20
2023-04-11T12:25:04.479Z,1.53
2023-04-11T12:27:31.206Z,1.57
2023-04-11T12:29:57.903Z,1.43
2023-04-11T12:32:25.104Z,1.30
2023-04-11T12:34:51.803Z,2.00
2023-04-11T12:37:18.479Z,1.50
2023-04-11T12:39:46.542Z,2.03
2023-04-11T12:42:15.086Z,1.83
2023-04-11T12:44:44.202Z,1.93
2023-04-11T12:47:10.969Z,1.77
2023-04-11T12:49:37.647Z,2.10
2023-04-11T12:52:04.699Z,1.80
2023-04-11T12:54:31.442Z,1.80
2023-04-11T12:56:59.419Z,1.80
2023-04-11T12:59:26.125Z,1.93
2023-04-11T13:01:52.919Z,2.70
2023-04-11T13:04:19.747Z,2.27
2023-04-11T13:06:46.490Z,1.90
2023-04-11T13:09:14.032Z,1.67
2023-04-11T13:11:40.836Z,1.73
2023-04-11T13:14:08.913Z,1.80
2023-04-11T13:16:35.623Z,1.90
2023-04-11T13:19:02.305Z,1.40
2023-04-11T13:21:29.014Z,1.40
2023-04-11T13:23:55.691Z,1.10
2023-04-11T13:26:22.378Z,1.83
2023-04-11T13:28:49.070Z,1.33
2023-04-11T13:31:17.104Z,2.80
2023-04-11T13:33:43.868Z,1.20
2023-04-11T13:36:11.259Z,1.27
2023-04-11T13:38:37.956Z,1.70
2023-04-11T13:41:04.882Z,1.40
2023-04-11T13:43:32.128Z,1.30
2023-04-11T13:45:58.893Z,1.30
2023-04-11T13:48:27.042Z,1.30
2023-04-11T13:50:53.820Z,1.53
2023-04-11T13:53:20.496Z,1.13
2023-04-11T13:55:47.206Z,1.83
2023-04-11T13:58:14.377Z,1.60
2023-04-11T14:00:41.318Z,1.70
2023-04-11T14:03:08.212Z,3.53
2023-04-11T14:05:36.585Z,1.17
2023-04-11T14:08:04.160Z,1.53
2023-04-11T14:10:31.034Z,1.40
2023-04-11T14:12:57.755Z,1.10
2023-04-11T14:15:24.693Z,1.70
2023-04-11T14:17:51.467Z,1.50
2023-04-11T14:20:18.420Z,1.77
2023-04-11T14:22:46.623Z,1.33
2023-04-11T14:25:13.970Z,1.27
2023-04-11T14:27:41.211Z,1.30
2023-04-11T14:30:09.427Z,1.20
2023-04-11T14:32:36.221Z,2.20
2023-04-11T14:35:03.033Z,1.47
2023-04-11T14:37:29.946Z,1.57
2023-04-11T14:39:57.965Z,2.13
2023-04-11T14:42:24.939Z,1.93
2023-04-11T14:44:51.714Z,1.70
2023-04-11T14:47:18.606Z,2.07
2023-04-11T14:49:45.374Z,1.53
2023-04-11T14:52:12.157Z,1.70
2023-04-11T14:54:38.906Z,1.80
2023-04-11T14:57:06.984Z,1.90
2023-04-11T14:59:33.681Z,2.40
2023-04-11T15:02:00.524Z,1.50
2023-04-11T15:04:27.448Z,1.10
2023-04-11T15:06:54.277Z,1.80
2023-04-11T15:09:21.045Z,1.63
2023-04-11T15:11:48.277Z,1.63
2023-04-11T15:14:16.277Z,1.50
2023-04-11T15:16:43.068Z,2.20
2023-04-11T15:19:09.776Z,0.93
2023-04-11T15:21:36.469Z,1.10
2023-04-11T15:24:03.369Z,1.50
2023-04-11T15:26:30.063Z,1.00
2023-04-11T15:28:56.779Z,1.20
2023-04-11T15:31:25.921Z,0.97
2023-04-11T15:33:53.114Z,0.93
2023-04-11T15:36:19.955Z,1.27
2023-04-11T15:38:46.638Z,1.23
2023-04-11T15:41:13.463Z,1.00
2023-04-11T15:43:40.228Z,1.33
2023-04-11T15:46:07.144Z,0.97
2023-04-11T15:48:35.192Z,0.70
2023-04-11T15:51:08.533Z,0.90
2023-04-11T15:53:35.265Z,1.37
2023-04-11T15:56:04.149Z,0.73
2023-04-11T15:58:31.953Z,1.17
2023-04-11T16:00:58.898Z,1.03
2023-04-11T16:03:25.775Z,1.50
2023-04-11T16:09:18.534Z,1.00
2023-04-11T16:11:45.425Z,1.20
2023-04-11T16:14:12.174Z,0.90
2023-04-11T16:19:37.476Z,1.20
2023-04-11T16:22:32.275Z,1.10
2023-04-11T16:28:27.181Z,1.63
2023-04-11T16:30:54.429Z,1.40
2023-04-11T16:33:22.169Z,1.20
2023-04-11T16:35:50.917Z,1.00
2023-04-11T16:38:19.182Z,1.27
2023-04-11T16:40:45.833Z,1.43
2023-04-11T16:43:12.731Z,0.93
2023-04-11T16:45:39.424Z,1.17
2023-04-11T16:48:06.116Z,0.90
2023-04-11T16:50:32.813Z,0.80
2023-04-11T16:52:59.497Z,1.27
2023-04-11T16:55:27.549Z,0.90
2023-04-11T16:57:54.234Z,0.87
2023-04-11T17:00:21.190Z,1.20
2023-04-11T17:02:48.031Z,0.90
2023-04-11T17:05:15.129Z,1.50
2023-04-11T17:07:41.838Z,1.17
2023-04-11T17:10:09.404Z,0.83
2023-04-11T17:12:37.422Z,1.33
2023-04-11T17:15:04.795Z,1.07
2023-04-11T17:17:31.464Z,1.03
2023-04-11T17:19:58.159Z,0.80
2023-04-11T17:22:24.944Z,1.50
2023-04-11T17:24:51.656Z,1.87
2023-04-11T17:27:18.300Z,1.70
2023-04-11T17:29:46.383Z,0.87
2023-04-11T17:32:13.163Z,1.50
2023-04-11T17:34:39.924Z,1.50
2023-04-11T17:37:06.621Z,2.07
2023-04-11T17:39:33.770Z,1.40
2023-04-11T17:42:00.571Z,1.63
2023-04-11T17:44:27.228Z,2.40
2023-04-11T17:46:55.566Z,2.17
2023-04-11T17:49:22.464Z,1.60
2023-04-11T17:51:58.099Z,1.53
2023-04-11T17:54:25.511Z,1.53
2023-04-11T17:56:52.184Z,1.40
2023-04-11T17:59:18.890Z,1.50
2023-04-11T18:01:45.856Z,2.60
2023-04-11T18:04:14.391Z,2.40
2023-04-11T18:06:42.550Z,1.40
2023-04-11T18:09:09.246Z,1.40
2023-04-11T18:11:36.176Z,1.23
2023-04-11T18:14:03.356Z,1.30
2023-04-11T18:16:30.297Z,1.30
2023-04-11T18:18:57.055Z,1.77
2023-04-11T18:21:25.202Z,1.30
2023-04-11T18:23:51.886Z,1.50
2023-04-11T18:26:18.550Z,1.00
2023-04-11T18:28:45.321Z,1.47
2023-04-11T18:31:12.124Z,1.87
2023-04-11T18:33:42.445Z,1.40
2023-04-11T18:36:26.891Z,1.67
2023-04-11T18:38:55.029Z,1.30
2023-04-11T18:41:22.113Z,1.20
2023-04-11T18:43:48.798Z,1.50
2023-04-11T18:46:15.475Z,1.23
2023-04-11T18:48:42.262Z,1.40
2023-04-11T18:51:08.975Z,1.70
2023-04-11T18:53:37.039Z,1.63
2023-04-11T18:56:03.926Z,2.30
2023-04-11T18:58:33.940Z,1.90
2023-04-11T19:01:13.194Z,1.60
2023-04-11T19:03:42.255Z,1.97
2023-04-11T19:06:09.153Z,2.10
2023-04-11T19:08:37.283Z,1.57
2023-04-11T19:11:04.076Z,1.83
2023-04-11T19:13:30.730Z,1.87
2023-04-11T19:15:57.788Z,1.93
2023-04-11T19:18:24.523Z,1.87
2023-04-11T19:20:51.228Z,2.17
2023-04-11T19:23:17.943Z,2.97
2023-04-11T19:25:47.003Z,2.30
2023-04-11T19:28:13.736Z,2.33
2023-04-11T19:30:40.533Z,2.90
2023-04-11T19:33:07.292Z,2.30
2023-04-11T19:35:33.989Z,2.20
2023-04-11T19:38:02.193Z,2.13
2023-04-11T19:40:29.277Z,1.60
2023-04-11T19:42:57.294Z,1.50
2023-04-11T19:45:24.036Z,1.53
2023-04-11T19:47:50.817Z,1.97
2023-04-11T19:50:17.645Z,2.00
2023-04-11T19:52:44.329Z,2.10
2023-04-11T19:55:11.700Z,2.10
2023-04-11T19:57:38.570Z,1.90
2023-04-11T20:00:08.108Z,1.63
2023-04-11T20:02:35.000Z,2.07
2023-04-11T20:05:01.858Z,1.73
2023-04-11T20:07:28.573Z,2.40
2023-04-11T20:09:55.224Z,1.60
2023-04-11T20:12:21.902Z,2.30
2023-04-11T20:14:48.553Z,1.77
2023-04-11T20:17:16.660Z,1.87
2023-04-11T20:19:43.308Z,1.70
2023-04-11T20:22:10.006Z,1.70
2023-04-11T20:24:36.752Z,2.20
2023-04-11T20:27:03.462Z,2.00
2023-04-11T20:29:30.913Z,1.63
2023-04-11T20:31:57.819Z,2.17
2023-04-11T20:34:25.878Z,2.50
2023-04-11T20:36:52.535Z,1.93
2023-04-11T20:39:19.246Z,2.40
2023-04-11T20:41:45.937Z,2.10
2023-04-11T20:44:12.642Z,2.50
2023-04-11T20:46:39.449Z,2.83
2023-04-11T20:49:06.430Z,2.07
2023-04-11T20:51:34.582Z,1.87
2023-04-11T20:54:01.268Z,1.93
2023-04-11T20:56:28.025Z,1.50
2023-04-11T20:58:54.744Z,2.00
2023-04-11T21:01:21.416Z,1.93
2023-04-11T21:03:48.247Z,2.50
2023-04-11T21:06:15.063Z,1.90
2023-04-11T21:08:43.111Z,1.67
2023-04-11T21:11:09.805Z,1.50
2023-04-11T21:13:36.460Z,1.60
2023-04-11T21:16:03.134Z,1.80
2023-04-11T21:18:29.870Z,1.77
2023-04-11T21:20:56.535Z,1.90
2023-04-11T21:23:23.259Z,1.77
2023-04-11T21:25:51.300Z,1.37
2023-04-11T21:28:18.072Z,1.77
2023-04-11T21:30:44.739Z,1.90
2023-04-11T21:33:11.382Z,2.07
2023-04-11T21:35:38.211Z,2.03
2023-04-11T21:38:04.933Z,1.50
2023-04-11T21:40:31.593Z,2.10
2023-04-11T21:42:59.660Z,1.60
2023-04-11T21:45:26.339Z,2.07
2023-04-11T21:47:53.094Z,1.70
2023-04-11T21:50:19.844Z,2.10
2023-04-11T21:52:46.751Z,1.80
2023-04-11T21:55:14.713Z,1.97
2023-04-11T21:57:41.477Z,1.77
2023-04-11T22:00:10.422Z,2.63
2023-04-11T22:02:37.594Z,1.77
2023-04-11T22:05:07.073Z,1.80
2023-04-11T22:07:34.660Z,1.70
2023-04-11T22:10:01.348Z,1.83
2023-04-11T22:12:28.039Z,1.63
2023-04-11T22:14:55.715Z,2.47
2023-04-11T22:17:23.926Z,1.40
2023-04-11T22:19:50.668Z,2.10
2023-04-11T22:22:17.558Z,2.70
2023-04-11T22:24:44.483Z,2.00
2023-04-11T22:27:11.150Z,2.60
2023-04-11T22:29:37.793Z,2.00
2023-04-11T22:32:04.699Z,3.73
2023-04-11T22:34:32.903Z,2.20
2023-04-11T22:36:59.536Z,2.23
2023-04-11T22:39:26.252Z,2.53
2023-04-11T22:41:53.010Z,2.20
2023-04-11T22:44:20.058Z,2.03
2023-04-11T22:46:58.204Z,2.90
2023-04-11T22:49:24.914Z,1.97
2023-04-11T22:51:52.948Z,1.53
2023-04-11T22:54:19.642Z,1.60
2023-04-11T22:56:46.954Z,2.33
2023-04-11T22:59:13.665Z,2.10
2023-04-11T23:01:40.536Z,2.30
2023-04-11T23:04:07.374Z,2.20
2023-04-11T23:06:34.069Z,1.83
2023-04-11T23:09:02.041Z,1.90
2023-04-11T23:11:28.721Z,1.80
2023-04-11T23:13:55.847Z,1.90
2023-04-11T23:16:22.742Z,1.90
2023-04-11T23:18:49.489Z,2.03
2023-04-11T23:21:16.274Z,1.57
2023-04-11T23:23:42.973Z,1.57
2023-04-11T23:26:17.289Z,2.00
2023-04-11T23:28:44.131Z,1.70
2023-04-11T23:31:10.853Z,2.20
2023-04-11T23:33:38.302Z,1.70
2023-04-11T23:36:05.526Z,1.10
2023-04-11T23:38:32.213Z,1.63
2023-04-11T23:40:58.939Z,1.80
2023-04-11T23:43:26.967Z,2.30
2023-04-11T23:45:54.810Z,2.80
2023-04-11T23:48:21.619Z,2.83
2023-04-11T23:50:48.268Z,2.37
2023-04-11T23:53:14.990Z,2.70
2023-04-11T23:55:41.829Z,2.77
2023-04-11T23:58:09.116Z,2.10
